createdAt,value
2022-11-15T00:00:13.819Z,18.90
2022-11-15T00:02:59.281Z,18.80
2022-11-15T00:05:45.182Z,18.80
2022-11-15T00:08:31.879Z,18.80
2022-11-15T00:11:17.794Z,18.80
2022-11-15T00:14:04.278Z,18.80
2022-11-15T00:16:49.678Z,18.80
2022-11-15T00:19:35.844Z,18.80
2022-11-15T00:22:21.557Z,18.70
2022-11-15T00:25:07.140Z,18.70
2022-11-15T00:27:55.832Z,18.70
2022-11-15T00:30:41.462Z,18.70
2022-11-15T00:33:27.008Z,18.70
2022-11-15T00:36:12.624Z,18.70
2022-11-15T00:38:58.370Z,18.70
2022-11-15T00:41:43.981Z,18.70
2022-11-15T00:44:29.469Z,18.60
2022-11-15T00:47:15.021Z,18.60
2022-11-15T00:50:00.552Z,18.60
2022-11-15T00:52:46.223Z,18.60
2022-11-15T00:55:32.053Z,18.60
2022-11-15T00:58:17.543Z,18.60
2022-11-15T01:01:07.890Z,18.60
2022-11-15T01:03:58.642Z,18.60
2022-11-15T01:06:46.856Z,18.50
2022-11-15T01:09:32.705Z,18.50
2022-11-15T01:12:18.368Z,18.50
2022-11-15T01:15:04.547Z,18.50
2022-11-15T01:17:50.161Z,18.50
2022-11-15T01:20:39.877Z,18.50
2022-11-15T01:23:25.322Z,18.50
2022-11-15T01:26:11.961Z,18.50
2022-11-15T01:28:57.340Z,18.50
2022-11-15T01:31:42.757Z,18.50
2022-11-15T01:34:28.404Z,18.50
2022-11-15T01:37:13.933Z,18.50
2022-11-15T01:39:59.365Z,18.50
2022-11-15T01:42:45.327Z,18.50
2022-11-15T01:45:30.981Z,18.50
2022-11-15T01:48:16.654Z,18.40
2022-11-15T01:51:03.633Z,18.50
2022-11-15T01:53:50.331Z,18.50
2022-11-15T01:56:41.052Z,18.40
2022-11-15T01:59:26.848Z,18.40
2022-11-15T02:02:12.568Z,18.40
2022-11-15T02:04:58.288Z,18.40
2022-11-15T02:07:43.777Z,18.40
2022-11-15T02:10:29.269Z,18.40
2022-11-15T02:13:16.120Z,18.40
2022-11-15T02:16:05.000Z,18.40
2022-11-15T02:18:58.289Z,18.40
2022-11-15T02:21:48.088Z,18.30
2022-11-15T02:24:46.262Z,18.40
2022-11-15T02:27:40.985Z,18.30
2022-11-15T02:30:35.850Z,18.30
2022-11-15T02:33:27.443Z,18.30
2022-11-15T02:36:18.451Z,18.30
2022-11-15T02:39:06.974Z,18.30
2022-11-15T02:41:58.616Z,18.30
2022-11-15T02:44:46.673Z,18.30
2022-11-15T02:47:35.159Z,18.30
2022-11-15T02:50:23.041Z,18.30
2022-11-15T02:53:09.244Z,18.30
2022-11-15T02:55:55.663Z,18.20
2022-11-15T02:58:47.445Z,18.30
2022-11-15T03:01:51.895Z,18.30
2022-11-15T03:04:37.246Z,18.20
2022-11-15T03:07:35.029Z,18.20
2022-11-15T03:10:20.972Z,18.20
2022-11-15T03:13:25.291Z,18.20
2022-11-15T03:16:16.031Z,18.20
2022-11-15T03:19:13.007Z,18.20
2022-11-15T03:22:01.189Z,18.20
2022-11-15T03:24:48.232Z,18.20
2022-11-15T03:27:40.075Z,18.20
2022-11-15T03:30:25.776Z,18.20
2022-11-15T03:33:11.927Z,18.20
2022-11-15T03:35:57.817Z,18.20
2022-11-15T03:38:44.212Z,18.20
2022-11-15T03:41:33.604Z,18.10
2022-11-15T03:44:28.616Z,18.10
2022-11-15T03:47:19.484Z,18.20
2022-11-15T03:50:11.491Z,18.10
2022-11-15T03:52:57.249Z,18.10
2022-11-15T03:55:42.943Z,18.10
2022-11-15T03:58:28.395Z,18.10
2022-11-15T04:01:13.903Z,18.10
2022-11-15T04:03:59.439Z,18.10
2022-11-15T04:06:45.217Z,18.10
2022-11-15T04:09:31.030Z,18.10
2022-11-15T04:12:31.452Z,18.10
2022-11-15T04:15:22.408Z,18.10
2022-11-15T04:18:07.801Z,18.10
2022-11-15T04:21:11.975Z,18.10
2022-11-15T04:24:06.802Z,18.00
2022-11-15T04:26:52.672Z,18.00
2022-11-15T04:29:38.252Z,18.00
2022-11-15T04:32:23.742Z,18.00
2022-11-15T04:35:09.890Z,18.00
2022-11-15T04:37:56.264Z,18.00
2022-11-15T04:40:41.597Z,18.00
2022-11-15T04:43:27.112Z,18.00
2022-11-15T04:46:12.631Z,18.00
2022-11-15T04:48:59.469Z,18.00
2022-11-15T04:51:45.260Z,18.10
2022-11-15T04:54:30.993Z,18.20
2022-11-15T04:57:16.732Z,18.30
2022-11-15T05:00:03.845Z,18.30
2022-11-15T05:03:08.384Z,18.40
2022-11-15T05:05:54.216Z,18.50
2022-11-15T05:08:39.741Z,18.60
2022-11-15T05:11:25.336Z,18.70
2022-11-15T05:14:10.962Z,18.80
2022-11-15T05:16:56.360Z,18.80
2022-11-15T05:19:41.955Z,18.80
2022-11-15T05:22:28.071Z,18.90
2022-11-15T05:25:13.538Z,18.90
2022-11-15T05:27:59.286Z,18.90
2022-11-15T05:30:44.814Z,18.90
2022-11-15T05:33:31.090Z,18.90
2022-11-15T05:36:35.595Z,19.00
2022-11-15T05:39:21.229Z,18.90
2022-11-15T05:42:11.566Z,19.00
2022-11-15T05:44:57.896Z,19.00
2022-11-15T05:47:44.581Z,18.90
2022-11-15T05:50:30.235Z,19.00
2022-11-15T05:53:17.202Z,19.00
2022-11-15T05:56:03.883Z,19.00
2022-11-15T05:58:49.607Z,19.00
2022-11-15T06:01:35.444Z,19.00
2022-11-15T06:04:21.241Z,19.00
2022-11-15T06:07:06.726Z,19.00
2022-11-15T06:09:52.238Z,19.10
2022-11-15T06:12:37.558Z,19.20
2022-11-15T06:15:23.093Z,19.30
2022-11-15T06:18:08.504Z,19.50
2022-11-15T06:20:54.078Z,19.70
2022-11-15T06:23:39.874Z,19.90
2022-11-15T06:26:25.404Z,20.00
2022-11-15T06:29:11.127Z,20.20
2022-11-15T06:31:56.654Z,20.20
2022-11-15T06:34:41.955Z,20.30
2022-11-15T06:37:29.238Z,20.30
2022-11-15T06:40:15.204Z,20.30
2022-11-15T06:43:01.189Z,20.30
2022-11-15T06:45:47.019Z,20.30
2022-11-15T06:48:33.630Z,20.20
2022-11-15T06:51:19.530Z,20.20
2022-11-15T06:54:06.086Z,20.20
2022-11-15T06:56:51.644Z,20.10
2022-11-15T06:59:40.619Z,20.10
2022-11-15T07:02:27.033Z,20.10
2022-11-15T07:05:13.379Z,20.10
2022-11-15T07:07:59.443Z,20.00
2022-11-15T07:10:45.122Z,20.00
2022-11-15T07:13:34.727Z,20.10
2022-11-15T07:16:20.769Z,20.00
2022-11-15T07:19:06.282Z,20.00
2022-11-15T07:21:51.854Z,20.00
2022-11-15T07:24:37.671Z,19.90
2022-11-15T07:27:23.080Z,19.90
2022-11-15T07:30:08.797Z,19.90
2022-11-15T07:32:58.763Z,19.90
2022-11-15T07:35:47.296Z,19.80
2022-11-15T07:38:35.788Z,19.80
2022-11-15T07:41:25.050Z,19.80
2022-11-15T07:44:10.794Z,19.80
2022-11-15T07:46:56.593Z,19.80
2022-11-15T07:49:42.086Z,19.80
2022-11-15T07:52:27.619Z,19.80
2022-11-15T07:55:13.212Z,19.90
2022-11-15T07:58:09.362Z,19.90
2022-11-15T08:00:55.087Z,19.90
2022-11-15T08:03:40.694Z,20.00
2022-11-15T08:06:26.148Z,20.00
2022-11-15T08:09:11.914Z,19.90
2022-11-15T08:11:57.820Z,19.90
2022-11-15T08:14:43.469Z,19.90
2022-11-15T08:17:32.955Z,19.90
2022-11-15T08:20:19.986Z,19.80
2022-11-15T08:23:06.128Z,19.80
2022-11-15T08:25:51.816Z,19.80
2022-11-15T08:28:37.434Z,19.80
2022-11-15T08:31:22.805Z,19.70
2022-11-15T08:34:08.356Z,19.70
2022-11-15T08:36:53.780Z,19.70
2022-11-15T08:39:43.681Z,19.70
2022-11-15T08:42:29.456Z,19.70
2022-11-15T08:45:15.505Z,19.60
2022-11-15T08:48:01.959Z,19.60
2022-11-15T08:50:47.714Z,19.60
2022-11-15T08:53:33.313Z,19.60
2022-11-15T08:56:18.909Z,19.60
2022-11-15T08:59:04.481Z,19.60
2022-11-15T09:01:50.028Z,19.60
2022-11-15T09:04:35.770Z,19.60
2022-11-15T09:07:21.248Z,19.60
2022-11-15T09:10:07.017Z,19.50
2022-11-15T09:12:52.887Z,19.60
2022-11-15T09:15:38.572Z,19.70
2022-11-15T09:18:24.400Z,19.70
2022-11-15T09:21:09.955Z,19.80
2022-11-15T09:23:55.417Z,19.90
2022-11-15T09:26:41.968Z,20.00
2022-11-15T09:29:27.519Z,19.70
2022-11-15T09:32:13.039Z,19.20
2022-11-15T09:34:58.475Z,19.50
2022-11-15T09:37:44.155Z,19.70
2022-11-15T09:40:32.026Z,19.90
2022-11-15T09:43:28.037Z,20.00
2022-11-15T09:46:18.750Z,20.10
2022-11-15T09:49:14.807Z,20.10
2022-11-15T09:51:57.881Z,20.20
2022-11-15T09:54:52.142Z,20.20
2022-11-15T09:57:17.979Z,20.10
2022-11-15T09:59:45.055Z,20.10
2022-11-15T10:02:30.521Z,20.10
2022-11-15T10:04:59.521Z,20.10
2022-11-15T10:07:28.999Z,20.10
2022-11-15T10:10:05.414Z,20.10
2022-11-15T10:12:32.630Z,20.10
2022-11-15T10:15:04.295Z,20.10
2022-11-15T10:17:47.832Z,20.10
2022-11-15T10:20:24.730Z,20.10
2022-11-15T10:22:53.498Z,20.00
2022-11-15T10:25:31.274Z,20.00
2022-11-15T10:28:01.116Z,20.00
2022-11-15T10:30:40.779Z,20.00
2022-11-15T10:33:26.148Z,20.00
2022-11-15T10:36:12.223Z,20.00
2022-11-15T10:38:51.605Z,20.00
2022-11-15T10:41:21.588Z,20.10
2022-11-15T10:44:03.057Z,20.00
2022-11-15T10:46:46.042Z,20.00
2022-11-15T10:49:19.811Z,20.00
2022-11-15T10:51:52.074Z,20.00
2022-11-15T10:54:24.915Z,20.00
2022-11-15T10:56:53.593Z,20.00
2022-11-15T10:59:25.342Z,20.00
2022-11-15T11:01:52.599Z,20.00
2022-11-15T11:04:20.294Z,20.00
2022-11-15T11:06:49.332Z,20.10
2022-11-15T11:09:31.513Z,20.00
2022-11-15T11:11:58.865Z,20.00
2022-11-15T11:14:28.596Z,20.00
2022-11-15T11:17:14.250Z,20.00
2022-11-15T11:20:00.179Z,20.00
2022-11-15T11:22:38.800Z,20.00
2022-11-15T11:25:25.000Z,20.00
2022-11-15T11:28:00.286Z,20.00
2022-11-15T11:30:39.757Z,20.00
2022-11-15T11:33:29.053Z,20.10
2022-11-15T11:36:08.425Z,20.10
2022-11-15T11:38:40.671Z,20.10
2022-11-15T11:41:31.069Z,20.20
2022-11-15T11:43:58.354Z,20.20
2022-11-15T11:46:25.388Z,20.20
2022-11-15T11:48:58.068Z,20.10
2022-11-15T11:51:25.149Z,20.20
2022-11-15T11:53:57.385Z,20.20
2022-11-15T11:56:34.484Z,20.20
2022-11-15T11:59:06.803Z,20.20
2022-11-15T12:01:44.213Z,20.10
2022-11-15T12:04:30.529Z,20.10
2022-11-15T12:07:00.593Z,20.10
2022-11-15T12:09:33.271Z,20.20
2022-11-15T12:12:00.341Z,20.20
2022-11-15T12:14:33.700Z,20.20
2022-11-15T12:17:01.051Z,20.10
2022-11-15T12:19:29.164Z,20.10
2022-11-15T12:21:56.215Z,20.00
2022-11-15T12:24:28.925Z,20.00
2022-11-15T12:27:02.585Z,20.00
2022-11-15T12:29:36.338Z,19.90
2022-11-15T12:32:04.722Z,19.90
2022-11-15T12:34:31.729Z,19.80
2022-11-15T12:36:58.838Z,19.80
2022-11-15T12:39:44.692Z,19.80
2022-11-15T12:42:11.741Z,19.80
2022-11-15T12:44:39.965Z,19.70
2022-11-15T12:47:09.837Z,19.70
2022-11-15T12:49:36.891Z,19.70
2022-11-15T12:52:05.826Z,19.70
2022-11-15T12:54:33.238Z,19.70
2022-11-15T12:57:09.279Z,19.70
2022-11-15T12:59:48.637Z,19.70
2022-11-15T13:02:34.090Z,19.70
2022-11-15T13:05:16.624Z,19.70
2022-11-15T13:07:43.764Z,19.70
2022-11-15T13:10:10.890Z,19.80
2022-11-15T13:12:46.984Z,19.90
2022-11-15T13:15:14.066Z,20.10
2022-11-15T13:17:48.080Z,20.30
2022-11-15T13:20:15.368Z,20.40
2022-11-15T13:23:01.883Z,20.50
2022-11-15T13:25:41.163Z,20.70
2022-11-15T13:28:19.426Z,20.80
2022-11-15T13:30:57.647Z,20.80
2022-11-15T13:33:35.679Z,20.80
2022-11-15T13:36:08.009Z,20.80
2022-11-15T13:38:36.034Z,20.80
2022-11-15T13:41:18.847Z,20.80
2022-11-15T13:43:45.903Z,20.70
2022-11-15T13:46:13.120Z,20.80
2022-11-15T13:48:41.175Z,20.70
2022-11-15T13:51:11.313Z,20.70
2022-11-15T13:53:40.696Z,20.80
2022-11-15T13:56:07.900Z,20.80
2022-11-15T13:58:37.975Z,20.70
2022-11-15T14:01:05.789Z,20.70
2022-11-15T14:03:34.814Z,20.70
2022-11-15T14:06:04.830Z,20.60
2022-11-15T14:08:32.305Z,20.60
2022-11-15T14:11:09.968Z,20.50
2022-11-15T14:13:37.125Z,20.50
2022-11-15T14:16:33.695Z,20.50
2022-11-15T14:19:01.054Z,20.50
2022-11-15T14:21:28.127Z,20.40
2022-11-15T14:24:14.567Z,20.40
2022-11-15T14:26:42.032Z,20.40
2022-11-15T14:29:28.111Z,20.40
2022-11-15T14:32:06.207Z,20.30
2022-11-15T14:34:33.521Z,20.30
2022-11-15T14:37:00.529Z,20.20
2022-11-15T14:39:27.639Z,20.20
2022-11-15T14:41:54.701Z,20.20
2022-11-15T14:44:22.662Z,20.30
2022-11-15T14:46:49.729Z,20.20
2022-11-15T14:49:17.232Z,20.20
2022-11-15T14:51:44.336Z,20.20
2022-11-15T14:54:11.540Z,20.20
2022-11-15T14:56:38.616Z,20.10
2022-11-15T14:59:05.781Z,20.10
2022-11-15T15:01:32.966Z,20.10
2022-11-15T15:04:00.516Z,20.00
2022-11-15T15:06:27.669Z,20.00
2022-11-15T15:08:54.836Z,20.10
2022-11-15T15:11:23.665Z,20.00
2022-11-15T15:13:51.293Z,20.00
2022-11-15T15:16:18.417Z,20.00
2022-11-15T15:18:45.688Z,20.10
2022-11-15T15:21:23.936Z,20.10
2022-11-15T15:23:51.374Z,20.20
2022-11-15T15:26:20.002Z,20.20
2022-11-15T15:28:49.419Z,20.30
2022-11-15T15:31:16.456Z,20.30
2022-11-15T15:33:43.497Z,20.30
2022-11-15T15:36:14.240Z,20.30
2022-11-15T15:38:42.273Z,20.30
2022-11-15T15:41:12.337Z,20.30
2022-11-15T15:43:39.943Z,20.40
2022-11-15T15:46:14.614Z,20.30
2022-11-15T15:48:41.893Z,20.30
2022-11-15T15:51:15.323Z,20.30
2022-11-15T15:53:45.678Z,20.30
2022-11-15T15:56:12.744Z,20.40
2022-11-15T15:58:39.811Z,20.40
2022-11-15T16:01:07.002Z,20.40
2022-11-15T16:03:34.202Z,20.40
2022-11-15T16:06:01.980Z,20.40
2022-11-15T16:08:42.542Z,20.50
2022-11-15T16:11:17.635Z,20.50
2022-11-15T16:13:44.706Z,20.60
2022-11-15T16:16:14.083Z,20.60
2022-11-15T16:18:41.097Z,20.50
2022-11-15T16:21:08.530Z,20.50
2022-11-15T16:23:35.766Z,20.50
2022-11-15T16:26:04.254Z,20.50
2022-11-15T16:28:32.817Z,20.50
2022-11-15T16:31:05.187Z,20.50
2022-11-15T16:33:32.963Z,20.40
2022-11-15T16:36:00.409Z,20.40
2022-11-15T16:38:27.579Z,20.40
2022-11-15T16:40:54.655Z,20.30
2022-11-15T16:43:21.812Z,20.30
2022-11-15T16:45:49.933Z,20.40
2022-11-15T16:48:22.879Z,20.40
2022-11-15T16:50:50.580Z,20.40
2022-11-15T16:53:17.625Z,20.40
2022-11-15T16:55:44.721Z,20.40
2022-11-15T16:58:11.833Z,20.40
2022-11-15T17:00:39.020Z,20.40
2022-11-15T17:03:07.002Z,20.30
2022-11-15T17:05:34.095Z,20.30
2022-11-15T17:08:01.136Z,20.30
2022-11-15T17:10:28.284Z,20.30
2022-11-15T17:12:55.648Z,20.20
2022-11-15T17:15:24.442Z,20.20
2022-11-15T17:17:53.319Z,20.30
2022-11-15T17:20:21.697Z,20.20
2022-11-15T17:22:48.977Z,20.20
2022-11-15T17:25:16.374Z,20.10
2022-11-15T17:27:43.456Z,20.10
2022-11-15T17:30:12.542Z,20.10
2022-11-15T17:32:39.639Z,20.10
2022-11-15T17:35:15.161Z,20.10
2022-11-15T17:37:43.217Z,20.10
2022-11-15T17:40:10.779Z,20.10
2022-11-15T17:42:40.370Z,20.10
2022-11-15T17:45:10.159Z,20.00
2022-11-15T17:47:38.115Z,20.10
2022-11-15T17:50:05.375Z,20.10
2022-11-15T17:52:32.560Z,20.00
2022-11-15T17:54:59.611Z,20.00
2022-11-15T17:57:26.751Z,20.10
2022-11-15T17:59:53.814Z,20.00
2022-11-15T18:02:20.875Z,20.10
2022-11-15T18:04:47.914Z,20.00
2022-11-15T18:07:15.110Z,20.00
2022-11-15T18:09:43.950Z,20.00
2022-11-15T18:12:11.964Z,20.00
2022-11-15T18:14:39.387Z,20.00
2022-11-15T18:17:06.476Z,20.00
2022-11-15T18:19:33.704Z,20.00
2022-11-15T18:22:01.259Z,20.00
2022-11-15T18:24:29.696Z,20.00
2022-11-15T18:26:57.484Z,20.00
2022-11-15T18:29:24.746Z,20.00
2022-11-15T18:31:55.577Z,20.00
2022-11-15T18:34:33.694Z,20.00
2022-11-15T18:37:02.592Z,20.00
2022-11-15T18:39:29.896Z,20.00
2022-11-15T18:41:57.066Z,20.00
2022-11-15T18:44:24.112Z,20.00
2022-11-15T18:46:51.226Z,19.90
2022-11-15T18:49:19.643Z,19.90
2022-11-15T18:51:47.486Z,20.00
2022-11-15T18:57:56.539Z,20.00
2022-11-15T19:00:23.673Z,20.00
2022-11-15T19:02:53.541Z,20.00
2022-11-15T19:05:21.393Z,20.10
2022-11-15T19:07:49.316Z,20.10
2022-11-15T19:10:16.591Z,20.20
2022-11-15T19:12:43.694Z,20.20
2022-11-15T19:15:10.990Z,20.20
2022-11-15T19:17:38.075Z,20.30
2022-11-15T19:20:05.414Z,20.30
2022-11-15T19:22:32.599Z,20.30
2022-11-15T19:24:59.713Z,20.30
2022-11-15T19:27:26.835Z,20.30
2022-11-15T19:29:53.998Z,20.20
2022-11-15T19:32:21.104Z,20.20
2022-11-15T19:34:48.250Z,20.20
2022-11-15T19:37:15.300Z,20.20
2022-11-15T19:39:42.384Z,20.20
2022-11-15T19:42:09.483Z,20.10
2022-11-15T19:44:36.614Z,20.10
2022-11-15T19:47:03.638Z,20.10
2022-11-15T19:49:30.761Z,20.10
2022-11-15T19:51:58.118Z,20.10
2022-11-15T19:54:25.220Z,20.10
2022-11-15T19:56:52.288Z,20.10
2022-11-15T19:59:19.380Z,20.20
2022-11-15T20:01:46.600Z,20.20
2022-11-15T20:04:13.693Z,20.20
2022-11-15T20:06:42.118Z,20.10
2022-11-15T20:09:11.981Z,20.10
2022-11-15T20:11:39.419Z,20.10
2022-11-15T20:14:08.845Z,20.10
2022-11-15T20:16:35.906Z,20.10
2022-11-15T20:19:03.297Z,20.10
2022-11-15T20:21:30.454Z,20.10
2022-11-15T20:23:58.036Z,20.20
2022-11-15T20:26:25.124Z,20.20
2022-11-15T20:28:52.159Z,20.20
2022-11-15T20:31:19.262Z,20.20
2022-11-15T20:33:46.364Z,20.20
2022-11-15T20:36:15.281Z,20.30
2022-11-15T20:38:43.467Z,20.20
2022-11-15T20:41:11.192Z,20.20
2022-11-15T20:43:38.345Z,20.20
2022-11-15T20:46:05.400Z,20.20
2022-11-15T20:48:33.066Z,20.20
2022-11-15T20:51:07.529Z,20.10
2022-11-15T20:53:34.933Z,20.10
2022-11-15T20:56:07.511Z,20.10
2022-11-15T20:58:35.745Z,20.10
2022-11-15T21:01:03.861Z,20.10
2022-11-15T21:03:30.965Z,20.10
2022-11-15T21:05:58.058Z,20.00
2022-11-15T21:08:25.193Z,20.00
2022-11-15T21:11:11.813Z,20.00
2022-11-15T21:13:39.097Z,19.90
2022-11-15T21:16:06.390Z,19.90
2022-11-15T21:18:33.853Z,19.90
2022-11-15T21:21:07.341Z,19.90
2022-11-15T21:23:34.514Z,19.90
2022-11-15T21:26:01.592Z,19.90
2022-11-15T21:28:28.721Z,19.90
2022-11-15T21:30:56.801Z,19.90
2022-11-15T21:33:27.131Z,19.90
2022-11-15T21:35:54.904Z,19.90
2022-11-15T21:38:25.126Z,19.90
2022-11-15T21:40:52.656Z,19.90
2022-11-15T21:43:20.531Z,19.80
2022-11-15T21:46:01.235Z,19.80
2022-11-15T21:48:29.193Z,19.80
2022-11-15T21:50:56.910Z,19.80
2022-11-15T21:53:24.826Z,19.80
2022-11-15T21:55:52.154Z,19.70
2022-11-15T21:58:19.822Z,19.70
2022-11-15T22:01:05.499Z,19.70
2022-11-15T22:03:32.702Z,19.70
2022-11-15T22:05:59.871Z,19.70
2022-11-15T22:08:27.033Z,19.70
2022-11-15T22:10:54.110Z,19.60
2022-11-15T22:13:21.290Z,19.70
2022-11-15T22:15:48.389Z,19.70
2022-11-15T22:18:15.491Z,19.60
2022-11-15T22:20:45.068Z,19.60
2022-11-15T22:23:12.392Z,19.60
2022-11-15T22:25:39.478Z,19.60
2022-11-15T22:28:06.735Z,19.60
2022-11-15T22:30:33.816Z,19.60
2022-11-15T22:33:00.955Z,19.60
2022-11-15T22:35:28.053Z,19.60
2022-11-15T22:37:55.110Z,19.60
2022-11-15T22:40:22.191Z,19.60
2022-11-15T22:42:49.242Z,19.60
2022-11-15T22:45:16.348Z,19.60
2022-11-15T22:47:43.414Z,19.60
2022-11-15T22:50:10.532Z,19.60
2022-11-15T22:52:37.590Z,19.50
2022-11-15T22:55:05.242Z,19.50
2022-11-15T22:57:32.313Z,19.50
2022-11-15T22:59:59.404Z,19.50
2022-11-15T23:02:26.967Z,19.50
2022-11-15T23:04:54.063Z,19.40
2022-11-15T23:07:21.151Z,19.40
2022-11-15T23:09:52.216Z,19.50
2022-11-15T23:12:38.193Z,19.40
2022-11-15T23:15:05.826Z,19.40
2022-11-15T23:17:32.962Z,19.40
2022-11-15T23:20:11.148Z,19.50
2022-11-15T23:22:47.199Z,19.50
2022-11-15T23:25:14.249Z,19.50
2022-11-15T23:27:41.345Z,19.50
2022-11-15T23:30:27.058Z,19.50
2022-11-15T23:33:12.588Z,19.40
2022-11-15T23:35:39.708Z,19.40
2022-11-15T23:38:06.757Z,19.50
2022-11-15T23:40:33.883Z,19.40
2022-11-15T23:43:01.024Z,19.40
2022-11-15T23:45:29.386Z,19.40
2022-11-15T23:48:01.098Z,19.40
2022-11-15T23:50:28.640Z,19.40
2022-11-15T23:52:55.696Z,19.40
2022-11-15T23:55:22.752Z,19.40
2022-11-15T23:57:49.971Z,19.40
